Terminal Aerodrome Forecast
Issued by NWS Cleveland, OH

Home | Current Version | Previous Version | Graphics & Text | Print | Product List | Glossary On
Versions: 1 2 3 4 5 6 7 8 9 10 11 12 13 14 15 16 17 18 19 20 21 22 23 24 25 26 27 28 29 30 31
000
FTUS41 KCLE 302048 AAB
TAFCLE
TAF AMD
KCLE 302048Z 3021/0124 24005KT P6SM -RA BKN030 OVC250
     FM302130 24010KT P6SM SCT030 BKN080
     FM010200 22005KT P6SM -RA VCTS OVC050CB
     FM010600 23007KT P6SM OVC015
     FM011000 23007KT P6SM OVC007
     FM011500 29009KT P6SM OVC015
     FM012100 30010KT P6SM BKN250=

USA.gov is the U.S. government's official web portal to all federal, state and local government web resources and services.